DLH68W LFBO-EDDM
Flight info
| Callsign | DLH68W |
|---|---|
| Flight time | 1h 22m |
| Altitude | 38000 |
| Route | MEN DCT NINUN DCT LATAM DCT ETREK DCT LTP DCT SOPLO DCT OMASI DCT KINNI DCT LAMUR DCT KORED/N0442F390 DCT NUNRI T103 BETOS BETOS1A |
| Aircraft | A20N/M-SDE2E3FGHIRWXY/LB1 |
Departure
| Time | 2026-05-01 13:44 |
|---|---|
| Airport | Toulouse-Blagnac Airport (LFBO) |
Arrival
| Time | 2026-05-01 15:06 |
|---|---|
| Airport | Munich Airport (EDDM) |
| Time | Latitude | Longitude | Altitude | Speed | Heading |
|---|---|---|---|---|---|
| 2026-05-01 13:18 | 43.63124 | 1.37051 | 496 ft | 0 kts | 21° |
| 2026-05-01 13:35 | 43.63112 | 1.37044 | 496 ft | 2 kts | 20° |
| 2026-05-01 13:35 | 43.63083 | 1.37030 | 496 ft | 2 kts | 20° |
| 2026-05-01 13:36 | 43.63074 | 1.37024 | 496 ft | 0 kts | 20° |
| 2026-05-01 13:36 | 43.63060 | 1.37020 | 496 ft | 2 kts | 355° |
| 2026-05-01 13:36 | 43.63034 | 1.37038 | 496 ft | 2 kts | 305° |
| 2026-05-01 13:37 | 43.63029 | 1.37049 | 496 ft | 0 kts | 288° |
| 2026-05-01 13:37 | 43.63028 | 1.37059 | 496 ft | 0 kts | 286° |
| 2026-05-01 13:37 | 43.63028 | 1.37058 | 496 ft | 0 kts | 286° |
| 2026-05-01 13:40 | 43.63032 | 1.37041 | 496 ft | 4 kts | 287° |
| 2026-05-01 13:40 | 43.63047 | 1.36985 | 495 ft | 9 kts | 296° |
| 2026-05-01 13:40 | 43.63099 | 1.36890 | 495 ft | 15 kts | 313° |
| 2026-05-01 13:41 | 43.63101 | 1.36768 | 496 ft | 12 kts | 277° |
| 2026-05-01 13:41 | 43.63163 | 1.36671 | 498 ft | 16 kts | 324° |
| 2026-05-01 13:41 | 43.63261 | 1.36567 | 498 ft | 19 kts | 322° |
| 2026-05-01 13:41 | 43.63380 | 1.36445 | 498 ft | 22 kts | 323° |
| 2026-05-01 13:42 | 43.63514 | 1.36304 | 498 ft | 25 kts | 322° |
| 2026-05-01 13:42 | 43.63668 | 1.36148 | 495 ft | 28 kts | 323° |
| 2026-05-01 13:42 | 43.63811 | 1.35999 | 495 ft | 11 kts | 322° |
| 2026-05-01 13:42 | 43.63828 | 1.35974 | 495 ft | 5 kts | 284° |
| 2026-05-01 13:43 | 43.63816 | 1.35936 | 495 ft | 4 kts | 237° |
| 2026-05-01 13:43 | 43.63796 | 1.35895 | 495 ft | 6 kts | 233° |
| 2026-05-01 13:43 | 43.63749 | 1.35815 | 495 ft | 16 kts | 224° |
| 2026-05-01 13:43 | 43.63646 | 1.35857 | 495 ft | 17 kts | 143° |
| 2026-05-01 13:44 | 43.63425 | 1.36089 | 500 ft | 76 kts | 142° |
| 2026-05-01 13:44 | 43.62801 | 1.36735 | 496 ft | 145 kts | 142° |
| 2026-05-01 13:44 | 43.61905 | 1.37645 | 966 ft | 163 kts | 139° |
| 2026-05-01 13:44 | 43.61006 | 1.38538 | 1762 ft | 163 kts | 139° |
| 2026-05-01 13:45 | 43.60105 | 1.39430 | 2567 ft | 164 kts | 140° |
| 2026-05-01 13:45 | 43.59150 | 1.40385 | 3079 ft | 179 kts | 140° |
| 2026-05-01 13:45 | 43.58089 | 1.41436 | 3546 ft | 198 kts | 141° |
| 2026-05-01 13:45 | 43.56902 | 1.42624 | 3973 ft | 221 kts | 140° |
| 2026-05-01 13:46 | 43.55777 | 1.44133 | 4500 ft | 238 kts | 118° |
| 2026-05-01 13:46 | 43.55432 | 1.46400 | 5048 ft | 256 kts | 82° |
| 2026-05-01 13:46 | 43.56105 | 1.48716 | 5823 ft | 267 kts | 54° |
| 2026-05-01 13:46 | 43.57332 | 1.50607 | 6685 ft | 272 kts | 47° |
| 2026-05-01 13:47 | 43.58641 | 1.52519 | 7550 ft | 277 kts | 47° |
| 2026-05-01 13:47 | 43.59964 | 1.54456 | 8385 ft | 282 kts | 47° |
| 2026-05-01 13:47 | 43.61317 | 1.56442 | 9210 ft | 288 kts | 47° |
| 2026-05-01 13:47 | 43.62682 | 1.58447 | 10004 ft | 293 kts | 47° |
| 2026-05-01 13:48 | 43.64085 | 1.60509 | 10742 ft | 300 kts | 47° |
| 2026-05-01 13:48 | 43.65549 | 1.62665 | 11197 ft | 317 kts | 47° |
| 2026-05-01 13:48 | 43.67108 | 1.64962 | 11592 ft | 336 kts | 47° |
| 2026-05-01 13:48 | 43.68726 | 1.67349 | 12092 ft | 349 kts | 47° |
| 2026-05-01 13:49 | 43.70392 | 1.69809 | 12835 ft | 353 kts | 47° |
| 2026-05-01 13:49 | 43.72062 | 1.72277 | 13594 ft | 357 kts | 47° |
| 2026-05-01 13:49 | 43.73759 | 1.74788 | 14310 ft | 361 kts | 47° |
| 2026-05-01 13:49 | 43.75485 | 1.77343 | 15038 ft | 365 kts | 47° |
| 2026-05-01 13:50 | 43.77217 | 1.79946 | 15769 ft | 369 kts | 49° |
| 2026-05-01 13:50 | 43.78894 | 1.82598 | 16473 ft | 372 kts | 49° |
| 2026-05-01 13:50 | 43.80583 | 1.85308 | 17150 ft | 376 kts | 49° |
| 2026-05-01 13:50 | 43.82302 | 1.88069 | 17821 ft | 379 kts | 49° |
| 2026-05-01 13:51 | 43.84027 | 1.90837 | 18476 ft | 383 kts | 49° |
| 2026-05-01 13:51 | 43.85762 | 1.93619 | 19086 ft | 387 kts | 49° |
| 2026-05-01 13:51 | 43.87514 | 1.96426 | 19682 ft | 391 kts | 49° |
| 2026-05-01 13:51 | 43.89310 | 1.99303 | 20267 ft | 395 kts | 49° |
| 2026-05-01 13:52 | 43.91099 | 2.02170 | 20835 ft | 400 kts | 49° |
| 2026-05-01 13:52 | 43.92926 | 2.05100 | 21395 ft | 404 kts | 49° |
| 2026-05-01 13:52 | 43.94778 | 2.08073 | 21962 ft | 408 kts | 49° |
| 2026-05-01 13:52 | 43.96643 | 2.11070 | 22510 ft | 413 kts | 49° |
| 2026-05-01 13:53 | 43.98499 | 2.14057 | 23066 ft | 416 kts | 49° |
| 2026-05-01 13:53 | 44.02311 | 2.20198 | 24049 ft | 426 kts | 49° |
| 2026-05-01 13:53 | 44.04264 | 2.23351 | 24510 ft | 431 kts | 49° |
| 2026-05-01 13:54 | 44.06213 | 2.26500 | 25029 ft | 434 kts | 49° |
| 2026-05-01 13:54 | 44.08191 | 2.29701 | 25520 ft | 437 kts | 49° |
| 2026-05-01 13:54 | 44.10169 | 2.32904 | 26009 ft | 440 kts | 49° |
| 2026-05-01 13:54 | 44.12158 | 2.36130 | 26481 ft | 443 kts | 49° |
| 2026-05-01 13:55 | 44.14165 | 2.39387 | 26939 ft | 446 kts | 49° |
| 2026-05-01 13:55 | 44.16184 | 2.42667 | 27382 ft | 449 kts | 49° |
| 2026-05-01 13:55 | 44.18218 | 2.45976 | 27810 ft | 451 kts | 48° |
| 2026-05-01 13:55 | 44.20262 | 2.49306 | 28229 ft | 454 kts | 48° |
| 2026-05-01 13:56 | 44.22313 | 2.52651 | 28727 ft | 453 kts | 48° |
| 2026-05-01 13:56 | 44.24349 | 2.55976 | 29286 ft | 451 kts | 48° |
| 2026-05-01 13:56 | 44.26368 | 2.59276 | 29781 ft | 450 kts | 48° |
| 2026-05-01 13:56 | 44.28405 | 2.62611 | 30225 ft | 450 kts | 48° |
| 2026-05-01 13:57 | 44.30410 | 2.65893 | 30660 ft | 450 kts | 49° |
| 2026-05-01 13:57 | 44.31753 | 2.68094 | 30945 ft | 450 kts | 49° |
| 2026-05-01 13:57 | 44.34457 | 2.72531 | 31507 ft | 449 kts | 49° |
| 2026-05-01 13:57 | 44.36473 | 2.75845 | 31943 ft | 447 kts | 49° |
| 2026-05-01 13:58 | 44.38490 | 2.79165 | 32355 ft | 446 kts | 49° |
| 2026-05-01 13:58 | 44.40483 | 2.82452 | 32765 ft | 445 kts | 49° |
| 2026-05-01 13:58 | 44.42460 | 2.85713 | 33152 ft | 444 kts | 49° |
| 2026-05-01 13:58 | 44.44459 | 2.89016 | 33539 ft | 443 kts | 49° |
| 2026-05-01 13:59 | 44.46422 | 2.92264 | 33904 ft | 442 kts | 49° |
| 2026-05-01 13:59 | 44.48403 | 2.95544 | 34224 ft | 442 kts | 49° |
| 2026-05-01 13:59 | 44.52366 | 3.02120 | 34265 ft | 442 kts | 49° |
| 2026-05-01 14:00 | 44.56325 | 3.08703 | 34264 ft | 442 kts | 50° |
| 2026-05-01 14:00 | 44.60169 | 3.15393 | 34264 ft | 443 kts | 54° |
| 2026-05-01 14:01 | 44.63461 | 3.22649 | 34269 ft | 442 kts | 60° |
| 2026-05-01 14:01 | 44.66457 | 3.30151 | 34268 ft | 442 kts | 60° |
| 2026-05-01 14:02 | 44.69446 | 3.37667 | 34267 ft | 442 kts | 60° |
| 2026-05-01 14:02 | 44.72432 | 3.45156 | 34279 ft | 442 kts | 60° |
| 2026-05-01 14:03 | 44.75442 | 3.52716 | 34275 ft | 442 kts | 60° |
| 2026-05-01 14:03 | 44.78429 | 3.60230 | 34280 ft | 442 kts | 60° |
| 2026-05-01 14:04 | 44.81430 | 3.67801 | 34279 ft | 443 kts | 61° |
| 2026-05-01 14:04 | 44.83915 | 3.74090 | 34279 ft | 442 kts | 61° |
| 2026-05-01 14:05 | 44.87391 | 3.82916 | 34275 ft | 442 kts | 61° |
| 2026-05-01 14:05 | 44.90354 | 3.90461 | 34273 ft | 442 kts | 60° |
| 2026-05-01 14:06 | 44.93309 | 3.98004 | 34278 ft | 442 kts | 60° |
| 2026-05-01 14:06 | 44.96293 | 4.05643 | 34273 ft | 443 kts | 60° |
| 2026-05-01 14:07 | 44.99234 | 4.13194 | 34270 ft | 442 kts | 60° |
| 2026-05-01 14:08 | 45.03675 | 4.24635 | 34271 ft | 442 kts | 60° |
| 2026-05-01 14:08 | 45.06608 | 4.32211 | 34269 ft | 441 kts | 60° |
| 2026-05-01 14:09 | 45.09554 | 4.39842 | 34262 ft | 442 kts | 60° |
| 2026-05-01 14:09 | 45.12489 | 4.47467 | 34261 ft | 443 kts | 60° |
| 2026-05-01 14:10 | 45.15431 | 4.55139 | 34258 ft | 443 kts | 60° |
| 2026-05-01 14:10 | 45.18375 | 4.62833 | 34347 ft | 447 kts | 60° |
| 2026-05-01 14:10 | 45.19844 | 4.66679 | 34734 ft | 445 kts | 61° |
| 2026-05-01 14:11 | 45.21314 | 4.70531 | 35205 ft | 442 kts | 60° |
| 2026-05-01 14:11 | 45.24219 | 4.78164 | 35984 ft | 438 kts | 60° |
| 2026-05-01 14:11 | 45.25676 | 4.81999 | 36320 ft | 437 kts | 60° |
| 2026-05-01 14:12 | 45.27106 | 4.85770 | 36631 ft | 436 kts | 60° |
| 2026-05-01 14:12 | 45.28547 | 4.89572 | 36926 ft | 436 kts | 60° |
| 2026-05-01 14:12 | 45.29976 | 4.93353 | 37222 ft | 435 kts | 60° |
| 2026-05-01 14:12 | 45.31406 | 4.97138 | 37478 ft | 435 kts | 60° |
| 2026-05-01 14:13 | 45.32818 | 5.00880 | 37716 ft | 435 kts | 60° |
| 2026-05-01 14:13 | 45.33773 | 5.03417 | 37869 ft | 435 kts | 60° |
| 2026-05-01 14:13 | 45.35667 | 5.08450 | 38162 ft | 435 kts | 60° |
| 2026-05-01 14:13 | 45.37093 | 5.12247 | 38235 ft | 435 kts | 60° |
| 2026-05-01 14:14 | 45.39935 | 5.19832 | 38251 ft | 435 kts | 60° |
| 2026-05-01 14:14 | 45.42760 | 5.27394 | 38264 ft | 434 kts | 60° |
| 2026-05-01 14:15 | 45.45605 | 5.34956 | 38258 ft | 433 kts | 58° |
| 2026-05-01 14:15 | 45.48905 | 5.42161 | 38258 ft | 432 kts | 50° |
| 2026-05-01 14:16 | 45.52757 | 5.48633 | 38255 ft | 429 kts | 43° |
| 2026-05-01 14:16 | 45.57116 | 5.54464 | 38250 ft | 431 kts | 39° |
| 2026-05-01 14:17 | 45.61652 | 5.60200 | 38249 ft | 440 kts | 39° |
| 2026-05-01 14:17 | 45.66237 | 5.66041 | 38236 ft | 448 kts | 40° |
| 2026-05-01 14:18 | 45.70888 | 5.72004 | 38236 ft | 450 kts | 40° |
| 2026-05-01 14:18 | 45.74752 | 5.76967 | 38234 ft | 450 kts | 39° |
| 2026-05-01 14:19 | 45.80197 | 5.83960 | 38235 ft | 449 kts | 39° |
| 2026-05-01 14:19 | 45.84833 | 5.89932 | 38243 ft | 449 kts | 39° |
| 2026-05-01 14:20 | 45.91792 | 5.98925 | 38245 ft | 447 kts | 40° |
| 2026-05-01 14:21 | 45.96390 | 6.04881 | 38245 ft | 447 kts | 40° |
| 2026-05-01 14:21 | 46.01007 | 6.10879 | 38250 ft | 448 kts | 40° |
| 2026-05-01 14:22 | 46.07803 | 6.20095 | 38261 ft | 449 kts | 45° |
| 2026-05-01 14:22 | 46.11783 | 6.27030 | 38260 ft | 451 kts | 52° |
| 2026-05-01 14:23 | 46.15402 | 6.34410 | 38273 ft | 450 kts | 53° |
| 2026-05-01 14:23 | 46.18988 | 6.41807 | 38277 ft | 450 kts | 53° |
| 2026-05-01 14:24 | 46.22559 | 6.49175 | 38297 ft | 449 kts | 53° |
| 2026-05-01 14:24 | 46.26135 | 6.56555 | 38306 ft | 449 kts | 53° |
| 2026-05-01 14:25 | 46.29710 | 6.63951 | 38316 ft | 448 kts | 53° |
| 2026-05-01 14:25 | 46.33290 | 6.71373 | 38308 ft | 448 kts | 54° |
| 2026-05-01 14:26 | 46.38631 | 6.82486 | 38308 ft | 448 kts | 54° |
| 2026-05-01 14:27 | 46.42165 | 6.89868 | 38309 ft | 448 kts | 54° |
| 2026-05-01 14:27 | 46.45693 | 6.97258 | 38319 ft | 448 kts | 54° |
| 2026-05-01 14:28 | 46.50857 | 7.08568 | 38335 ft | 447 kts | 57° |
| 2026-05-01 14:28 | 46.54160 | 7.16152 | 38333 ft | 446 kts | 57° |
| 2026-05-01 14:29 | 46.57474 | 7.23745 | 38336 ft | 445 kts | 56° |
| 2026-05-01 14:30 | 46.64099 | 7.38936 | 38331 ft | 444 kts | 56° |
| 2026-05-01 14:31 | 46.69025 | 7.50276 | 38319 ft | 443 kts | 56° |
| 2026-05-01 14:31 | 46.72290 | 7.57817 | 38318 ft | 442 kts | 56° |
| 2026-05-01 14:32 | 46.75573 | 7.65421 | 38323 ft | 441 kts | 57° |
| 2026-05-01 14:32 | 46.78825 | 7.72971 | 38322 ft | 441 kts | 57° |
| 2026-05-01 14:33 | 46.82068 | 7.80523 | 38121 ft | 440 kts | 57° |
| 2026-05-01 14:33 | 46.83688 | 7.84305 | 38267 ft | 440 kts | 57° |
| 2026-05-01 14:33 | 46.85301 | 7.88074 | 38292 ft | 440 kts | 57° |
| 2026-05-01 14:34 | 46.88533 | 7.95639 | 38305 ft | 439 kts | 57° |
| 2026-05-01 14:34 | 46.90161 | 7.99459 | 38502 ft | 440 kts | 57° |
| 2026-05-01 14:34 | 46.91773 | 8.03244 | 38354 ft | 438 kts | 57° |
| 2026-05-01 14:35 | 46.94965 | 8.10765 | 38310 ft | 438 kts | 57° |
| 2026-05-01 14:35 | 46.98185 | 8.18366 | 38308 ft | 437 kts | 57° |
| 2026-05-01 14:36 | 47.01376 | 8.25921 | 38311 ft | 437 kts | 57° |
| 2026-05-01 14:36 | 47.04572 | 8.33509 | 38309 ft | 436 kts | 57° |
| 2026-05-01 14:37 | 47.07757 | 8.41089 | 38303 ft | 436 kts | 56° |
| 2026-05-01 14:37 | 47.10916 | 8.48627 | 38298 ft | 435 kts | 57° |
| 2026-05-01 14:38 | 47.14074 | 8.56190 | 38295 ft | 435 kts | 56° |
| 2026-05-01 14:38 | 47.17212 | 8.63721 | 38294 ft | 435 kts | 56° |
| 2026-05-01 14:39 | 47.20349 | 8.71275 | 38288 ft | 435 kts | 57° |
| 2026-05-01 14:39 | 47.23502 | 8.78882 | 38288 ft | 435 kts | 57° |
| 2026-05-01 14:40 | 47.26625 | 8.86436 | 38288 ft | 435 kts | 57° |
| 2026-05-01 14:40 | 47.29745 | 8.94013 | 38292 ft | 434 kts | 57° |
| 2026-05-01 14:41 | 47.32869 | 9.01652 | 38290 ft | 434 kts | 59° |
| 2026-05-01 14:41 | 47.35561 | 9.09571 | 38292 ft | 435 kts | 62° |
| 2026-05-01 14:42 | 47.38166 | 9.17605 | 38298 ft | 435 kts | 62° |
| 2026-05-01 14:42 | 47.40787 | 9.25637 | 38290 ft | 434 kts | 62° |
| 2026-05-01 14:43 | 47.43401 | 9.33627 | 38283 ft | 434 kts | 62° |
| 2026-05-01 14:43 | 47.46012 | 9.41621 | 38279 ft | 433 kts | 62° |
| 2026-05-01 14:43 | 47.47301 | 9.45574 | 37991 ft | 430 kts | 62° |
| 2026-05-01 14:44 | 47.48602 | 9.49564 | 37241 ft | 430 kts | 62° |
| 2026-05-01 14:44 | 47.51184 | 9.57501 | 35777 ft | 429 kts | 62° |
| 2026-05-01 14:44 | 47.52463 | 9.61445 | 35057 ft | 428 kts | 62° |
| 2026-05-01 14:45 | 47.53753 | 9.65431 | 34341 ft | 427 kts | 63° |
| 2026-05-01 14:45 | 47.56281 | 9.73264 | 33049 ft | 425 kts | 63° |
| 2026-05-01 14:45 | 47.57547 | 9.77192 | 32394 ft | 424 kts | 63° |
| 2026-05-01 14:46 | 47.58822 | 9.81152 | 31733 ft | 423 kts | 63° |
| 2026-05-01 14:46 | 47.61324 | 9.88943 | 30429 ft | 423 kts | 63° |
| 2026-05-01 14:46 | 47.62590 | 9.92896 | 29771 ft | 424 kts | 63° |
| 2026-05-01 14:47 | 47.63848 | 9.96824 | 29118 ft | 425 kts | 63° |
| 2026-05-01 14:47 | 47.65100 | 10.00743 | 28472 ft | 425 kts | 63° |
| 2026-05-01 14:47 | 47.66356 | 10.04681 | 27821 ft | 422 kts | 63° |
| 2026-05-01 14:48 | 47.68838 | 10.12482 | 26524 ft | 417 kts | 63° |
| 2026-05-01 14:48 | 47.70070 | 10.16363 | 25873 ft | 414 kts | 63° |
| 2026-05-01 14:48 | 47.72483 | 10.23983 | 24564 ft | 408 kts | 63° |
| 2026-05-01 14:49 | 47.74874 | 10.31559 | 23226 ft | 403 kts | 64° |
| 2026-05-01 14:49 | 47.77227 | 10.39038 | 21905 ft | 398 kts | 64° |
| 2026-05-01 14:50 | 47.78766 | 10.43938 | 21027 ft | 395 kts | 64° |
| 2026-05-01 14:50 | 47.81826 | 10.53710 | 19316 ft | 388 kts | 64° |
| 2026-05-01 14:51 | 47.82956 | 10.57327 | 18652 ft | 385 kts | 64° |
| 2026-05-01 14:51 | 47.85176 | 10.64453 | 17383 ft | 380 kts | 64° |
| 2026-05-01 14:52 | 47.87364 | 10.71505 | 16143 ft | 375 kts | 65° |
| 2026-05-01 14:52 | 47.88455 | 10.75027 | 15509 ft | 373 kts | 65° |
| 2026-05-01 14:52 | 47.90597 | 10.81951 | 14278 ft | 369 kts | 64° |
| 2026-05-01 14:53 | 47.91669 | 10.85424 | 13652 ft | 367 kts | 64° |
| 2026-05-01 14:53 | 47.92719 | 10.88827 | 13051 ft | 365 kts | 64° |
| 2026-05-01 14:53 | 47.93785 | 10.92287 | 12434 ft | 363 kts | 65° |
| 2026-05-01 14:53 | 47.94831 | 10.95683 | 11828 ft | 361 kts | 65° |
| 2026-05-01 14:54 | 47.95864 | 10.99043 | 11214 ft | 359 kts | 65° |
| 2026-05-01 14:54 | 47.96899 | 11.02420 | 10598 ft | 357 kts | 65° |
| 2026-05-01 14:54 | 47.97925 | 11.05769 | 9993 ft | 355 kts | 65° |
| 2026-05-01 14:54 | 47.98941 | 11.09090 | 9373 ft | 353 kts | 65° |
| 2026-05-01 14:55 | 47.99952 | 11.12400 | 8755 ft | 350 kts | 66° |
| 2026-05-01 14:55 | 48.00942 | 11.15649 | 8282 ft | 344 kts | 66° |
| 2026-05-01 14:55 | 48.01912 | 11.18836 | 8070 ft | 329 kts | 66° |
| 2026-05-01 14:55 | 48.02998 | 11.21772 | 7847 ft | 317 kts | 52° |
| 2026-05-01 14:56 | 48.04549 | 11.23994 | 7642 ft | 306 kts | 41° |
| 2026-05-01 14:56 | 48.06186 | 11.25940 | 7439 ft | 296 kts | 39° |
| 2026-05-01 14:56 | 48.07789 | 11.27770 | 7239 ft | 285 kts | 39° |
| 2026-05-01 14:56 | 48.09352 | 11.29540 | 7054 ft | 275 kts | 39° |
| 2026-05-01 14:57 | 48.10851 | 11.31227 | 6834 ft | 268 kts | 39° |
| 2026-05-01 14:57 | 48.13897 | 11.34374 | 6095 ft | 267 kts | 28° |
| 2026-05-01 14:57 | 48.15587 | 11.35484 | 5768 ft | 266 kts | 25° |
| 2026-05-01 14:58 | 48.17300 | 11.36505 | 5427 ft | 264 kts | 24° |
| 2026-05-01 14:58 | 48.19017 | 11.37510 | 5076 ft | 262 kts | 24° |
| 2026-05-01 14:58 | 48.20689 | 11.38485 | 4948 ft | 251 kts | 24° |
| 2026-05-01 14:58 | 48.22263 | 11.39395 | 4940 ft | 235 kts | 24° |
| 2026-05-01 14:59 | 48.23747 | 11.40240 | 4928 ft | 221 kts | 24° |
| 2026-05-01 14:59 | 48.25151 | 11.41032 | 4918 ft | 209 kts | 24° |
| 2026-05-01 14:59 | 48.26479 | 11.41772 | 4914 ft | 199 kts | 24° |
| 2026-05-01 14:59 | 48.27770 | 11.42491 | 4923 ft | 199 kts | 24° |
| 2026-05-01 15:00 | 48.30368 | 11.43929 | 4922 ft | 199 kts | 24° |
| 2026-05-01 15:00 | 48.31672 | 11.44645 | 4921 ft | 199 kts | 24° |
| 2026-05-01 15:00 | 48.32941 | 11.45413 | 4914 ft | 196 kts | 38° |
| 2026-05-01 15:01 | 48.33789 | 11.46956 | 4922 ft | 191 kts | 70° |
| 2026-05-01 15:01 | 48.34111 | 11.48832 | 5017 ft | 181 kts | 80° |
| 2026-05-01 15:01 | 48.34304 | 11.50659 | 4835 ft | 173 kts | 82° |
| 2026-05-01 15:01 | 48.34458 | 11.52423 | 4596 ft | 163 kts | 83° |
| 2026-05-01 15:02 | 48.34584 | 11.54032 | 4356 ft | 150 kts | 83° |
| 2026-05-01 15:02 | 48.34623 | 11.54553 | 4278 ft | 145 kts | 83° |
| 2026-05-01 15:02 | 48.34799 | 11.56937 | 3960 ft | 132 kts | 83° |
| 2026-05-01 15:02 | 48.34904 | 11.58305 | 3744 ft | 133 kts | 83° |
| 2026-05-01 15:03 | 48.35005 | 11.59649 | 3612 ft | 132 kts | 83° |
| 2026-05-01 15:03 | 48.35113 | 11.61033 | 3474 ft | 132 kts | 84° |
| 2026-05-01 15:03 | 48.35206 | 11.62386 | 3288 ft | 130 kts | 83° |
| 2026-05-01 15:03 | 48.35312 | 11.63762 | 3137 ft | 130 kts | 83° |
| 2026-05-01 15:04 | 48.35401 | 11.65110 | 2992 ft | 129 kts | 85° |
| 2026-05-01 15:04 | 48.35503 | 11.66457 | 2801 ft | 131 kts | 84° |
| 2026-05-01 15:04 | 48.35596 | 11.67799 | 2603 ft | 129 kts | 84° |
| 2026-05-01 15:04 | 48.35689 | 11.69177 | 2464 ft | 132 kts | 83° |
| 2026-05-01 15:05 | 48.35819 | 11.70543 | 2288 ft | 135 kts | 84° |
| 2026-05-01 15:05 | 48.35925 | 11.71956 | 2103 ft | 135 kts | 86° |
| 2026-05-01 15:05 | 48.36013 | 11.73324 | 1948 ft | 131 kts | 84° |
| 2026-05-01 15:05 | 48.36108 | 11.74681 | 1759 ft | 130 kts | 86° |
| 2026-05-01 15:06 | 48.36214 | 11.76025 | 1600 ft | 130 kts | 85° |
| 2026-05-01 15:06 | 48.36322 | 11.77372 | 1483 ft | 124 kts | 83° |
| 2026-05-01 15:06 | 48.36407 | 11.78477 | 1472 ft | 83 kts | 84° |
| 2026-05-01 15:06 | 48.36455 | 11.79115 | 1469 ft | 38 kts | 90° |
| 2026-05-01 15:07 | 48.36418 | 11.79362 | 1468 ft | 20 kts | 108° |
| 2026-05-01 15:07 | 48.36364 | 11.79557 | 1468 ft | 20 kts | 114° |
| 2026-05-01 15:07 | 48.36307 | 11.79747 | 1468 ft | 17 kts | 124° |
| 2026-05-01 15:07 | 48.36231 | 11.79691 | 1468 ft | 16 kts | 262° |
| 2026-05-01 15:08 | 48.36211 | 11.79506 | 1469 ft | 18 kts | 238° |
| 2026-05-01 15:08 | 48.36092 | 11.79478 | 1470 ft | 17 kts | 174° |
| 2026-05-01 15:08 | 48.35967 | 11.79498 | 1471 ft | 18 kts | 178° |
| 2026-05-01 15:08 | 48.35836 | 11.79456 | 1472 ft | 19 kts | 172° |
| 2026-05-01 15:09 | 48.35701 | 11.79479 | 1474 ft | 18 kts | 174° |
| 2026-05-01 15:09 | 48.35572 | 11.79501 | 1474 ft | 19 kts | 174° |
| 2026-05-01 15:09 | 48.35432 | 11.79526 | 1475 ft | 21 kts | 173° |
| 2026-05-01 15:09 | 48.35280 | 11.79550 | 1476 ft | 21 kts | 174° |
| 2026-05-01 15:10 | 48.35142 | 11.79574 | 1476 ft | 14 kts | 182° |
| 2026-05-01 15:10 | 48.35106 | 11.79513 | 1477 ft | 2 kts | 290° |
| 2026-05-01 15:10 | 48.35118 | 11.79472 | 1477 ft | 6 kts | 284° |
| 2026-05-01 15:11 | 48.35114 | 11.79388 | 1478 ft | 9 kts | 263° |
| 2026-05-01 15:11 | 48.35111 | 11.79353 | 1478 ft | 0 kts | 263° |